GLD1410 SDAG-SBJD
Flight info
| Callsign | GLD1410 |
|---|---|
| Flight time | 0h 39m |
| Altitude | 22000 |
| Route | DCT ESORU Z10 EDMUS DCT |
| Aircraft | TBM9/L-SDFGIRY/S |
Departure
| Time | 2026-04-11 23:47 |
|---|---|
| Airport | Angra dos Reis Airport (SDAG) |
Arrival
| Time | 2026-04-12 00:27 |
|---|---|
| Airport | Comte. Rolim Adolfo Amaro–Jundiaí State Airport (SBJD) |
| Time | Latitude | Longitude | Altitude | Speed | Heading |
|---|---|---|---|---|---|
| 2026-04-11 23:33 | -22.97510 | -44.30322 | 3 ft | 0 kts | 260° |
| 2026-04-11 23:45 | -22.97509 | -44.30325 | 6 ft | 2 kts | 300° |
| 2026-04-11 23:45 | -22.97487 | -44.30328 | 6 ft | 5 kts | 358° |
| 2026-04-11 23:45 | -22.97452 | -44.30333 | 7 ft | 5 kts | 276° |
| 2026-04-11 23:45 | -22.97457 | -44.30372 | 7 ft | 0 kts | 253° |
| 2026-04-11 23:46 | -22.97463 | -44.30393 | 5 ft | 19 kts | 253° |
| 2026-04-11 23:47 | -22.97545 | -44.30789 | 9 ft | 87 kts | 256° |
| 2026-04-11 23:47 | -22.97701 | -44.31580 | 223 ft | 119 kts | 255° |
| 2026-04-11 23:47 | -22.97937 | -44.32542 | 461 ft | 151 kts | 251° |
| 2026-04-11 23:47 | -22.98395 | -44.33638 | 902 ft | 163 kts | 239° |
| 2026-04-11 23:48 | -22.99007 | -44.34606 | 1591 ft | 162 kts | 234° |
| 2026-04-11 23:48 | -22.99715 | -44.35647 | 1749 ft | 185 kts | 231° |
| 2026-04-11 23:48 | -23.00467 | -44.36881 | 1769 ft | 208 kts | 243° |
| 2026-04-11 23:48 | -23.01026 | -44.38382 | 1890 ft | 217 kts | 256° |
| 2026-04-11 23:49 | -23.01058 | -44.40024 | 2070 ft | 222 kts | 282° |
| 2026-04-11 23:49 | -23.00498 | -44.41573 | 2303 ft | 220 kts | 299° |
| 2026-04-11 23:49 | -23.00052 | -44.43151 | 2644 ft | 213 kts | 279° |
| 2026-04-11 23:49 | -23.00210 | -44.44639 | 3348 ft | 194 kts | 249° |
| 2026-04-11 23:50 | -23.00744 | -44.45955 | 3901 ft | 189 kts | 245° |
| 2026-04-11 23:50 | -23.01274 | -44.47249 | 4312 ft | 192 kts | 246° |
| 2026-04-11 23:50 | -23.01808 | -44.48582 | 4765 ft | 193 kts | 245° |
| 2026-04-11 23:50 | -23.02342 | -44.49923 | 5217 ft | 195 kts | 246° |
| 2026-04-11 23:51 | -23.02878 | -44.51266 | 5807 ft | 193 kts | 246° |
| 2026-04-11 23:51 | -23.03421 | -44.52608 | 6337 ft | 195 kts | 246° |
| 2026-04-11 23:51 | -23.03972 | -44.53958 | 6884 ft | 196 kts | 246° |
| 2026-04-11 23:51 | -23.04425 | -44.55356 | 7454 ft | 197 kts | 257° |
| 2026-04-11 23:52 | -23.04554 | -44.56830 | 8040 ft | 198 kts | 273° |
| 2026-04-11 23:52 | -23.04375 | -44.58293 | 8612 ft | 199 kts | 279° |
| 2026-04-11 23:52 | -23.04143 | -44.59777 | 9180 ft | 200 kts | 278° |
| 2026-04-11 23:52 | -23.03933 | -44.61274 | 9752 ft | 201 kts | 277° |
| 2026-04-11 23:53 | -23.03731 | -44.62784 | 10302 ft | 203 kts | 278° |
| 2026-04-11 23:53 | -23.03525 | -44.64310 | 10791 ft | 205 kts | 278° |
| 2026-04-11 23:53 | -23.03316 | -44.65850 | 11287 ft | 208 kts | 278° |
| 2026-04-11 23:53 | -23.03134 | -44.67410 | 11773 ft | 210 kts | 271° |
| 2026-04-11 23:54 | -23.03367 | -44.68968 | 12262 ft | 210 kts | 254° |
| 2026-04-11 23:54 | -23.03728 | -44.70516 | 12776 ft | 213 kts | 255° |
| 2026-04-11 23:54 | -23.04068 | -44.72067 | 13276 ft | 215 kts | 254° |
| 2026-04-11 23:54 | -23.04425 | -44.73652 | 13778 ft | 217 kts | 255° |
| 2026-04-11 23:55 | -23.04784 | -44.75250 | 14258 ft | 219 kts | 254° |
| 2026-04-11 23:55 | -23.05148 | -44.76861 | 14726 ft | 220 kts | 254° |
| 2026-04-11 23:55 | -23.05513 | -44.78480 | 15170 ft | 221 kts | 253° |
| 2026-04-11 23:55 | -23.05880 | -44.80106 | 15625 ft | 223 kts | 254° |
| 2026-04-11 23:56 | -23.06245 | -44.81735 | 16081 ft | 224 kts | 253° |
| 2026-04-11 23:56 | -23.06595 | -44.83292 | 16511 ft | 225 kts | 253° |
| 2026-04-11 23:56 | -23.06908 | -44.84675 | 16895 ft | 226 kts | 254° |
| 2026-04-11 23:56 | -23.07268 | -44.86285 | 17335 ft | 227 kts | 254° |
| 2026-04-11 23:57 | -23.07642 | -44.87957 | 17790 ft | 229 kts | 253° |
| 2026-04-11 23:57 | -23.08020 | -44.89638 | 18260 ft | 230 kts | 253° |
| 2026-04-11 23:57 | -23.08401 | -44.91333 | 18679 ft | 232 kts | 254° |
| 2026-04-11 23:57 | -23.08781 | -44.93036 | 19094 ft | 231 kts | 253° |
| 2026-04-11 23:58 | -23.09162 | -44.94733 | 19504 ft | 232 kts | 253° |
| 2026-04-11 23:58 | -23.09544 | -44.96441 | 19907 ft | 233 kts | 254° |
| 2026-04-11 23:58 | -23.09929 | -44.98162 | 20189 ft | 240 kts | 253° |
| 2026-04-11 23:58 | -23.10330 | -44.99966 | 20194 ft | 257 kts | 255° |
| 2026-04-11 23:59 | -23.10753 | -45.01896 | 20205 ft | 269 kts | 255° |
| 2026-04-11 23:59 | -23.11197 | -45.03902 | 20205 ft | 278 kts | 254° |
| 2026-04-11 23:59 | -23.11656 | -45.05965 | 20206 ft | 284 kts | 255° |
| 2026-04-11 23:59 | -23.12128 | -45.08064 | 20197 ft | 288 kts | 254° |
| 2026-04-12 00:00 | -23.12601 | -45.10194 | 20208 ft | 291 kts | 254° |
| 2026-04-12 00:00 | -23.13079 | -45.12340 | 20201 ft | 294 kts | 255° |
| 2026-04-12 00:00 | -23.13562 | -45.14501 | 20207 ft | 295 kts | 255° |
| 2026-04-12 00:00 | -23.14045 | -45.16669 | 20197 ft | 296 kts | 255° |
| 2026-04-12 00:01 | -23.14521 | -45.18820 | 20199 ft | 297 kts | 254° |
| 2026-04-12 00:01 | -23.15008 | -45.21000 | 20198 ft | 297 kts | 255° |
| 2026-04-12 00:01 | -23.15491 | -45.23178 | 20196 ft | 297 kts | 254° |
| 2026-04-12 00:01 | -23.15972 | -45.25358 | 20189 ft | 297 kts | 255° |
| 2026-04-12 00:02 | -23.16456 | -45.27540 | 20193 ft | 297 kts | 254° |
| 2026-04-12 00:02 | -23.16942 | -45.29722 | 20188 ft | 297 kts | 255° |
| 2026-04-12 00:02 | -23.17428 | -45.31907 | 20181 ft | 298 kts | 254° |
| 2026-04-12 00:02 | -23.17909 | -45.34093 | 20189 ft | 298 kts | 255° |
| 2026-04-12 00:03 | -23.18390 | -45.36283 | 20187 ft | 297 kts | 254° |
| 2026-04-12 00:03 | -23.18830 | -45.38480 | 20190 ft | 298 kts | 260° |
| 2026-04-12 00:03 | -23.18897 | -45.40710 | 20194 ft | 300 kts | 269° |
| 2026-04-12 00:03 | -23.18886 | -45.42974 | 20189 ft | 299 kts | 266° |
| 2026-04-12 00:04 | -23.18904 | -45.45232 | 20184 ft | 299 kts | 266° |
| 2026-04-12 00:04 | -23.18909 | -45.47497 | 20187 ft | 300 kts | 268° |
| 2026-04-12 00:04 | -23.18899 | -45.49761 | 20186 ft | 300 kts | 267° |
| 2026-04-12 00:04 | -23.18895 | -45.52025 | 20184 ft | 299 kts | 267° |
| 2026-04-12 00:05 | -23.18893 | -45.54287 | 20186 ft | 299 kts | 267° |
| 2026-04-12 00:05 | -23.18894 | -45.56546 | 20181 ft | 299 kts | 267° |
| 2026-04-12 00:05 | -23.18892 | -45.58811 | 20179 ft | 300 kts | 268° |
| 2026-04-12 00:05 | -23.18884 | -45.61050 | 20177 ft | 300 kts | 267° |
| 2026-04-12 00:06 | -23.18885 | -45.63315 | 20175 ft | 300 kts | 268° |
| 2026-04-12 00:06 | -23.18883 | -45.65582 | 20173 ft | 300 kts | 268° |
| 2026-04-12 00:06 | -23.18876 | -45.67849 | 20175 ft | 300 kts | 267° |
| 2026-04-12 00:06 | -23.18869 | -45.70115 | 20173 ft | 300 kts | 267° |
| 2026-04-12 00:07 | -23.18868 | -45.72376 | 20174 ft | 300 kts | 267° |
| 2026-04-12 00:07 | -23.18672 | -45.74641 | 20183 ft | 302 kts | 276° |
| 2026-04-12 00:07 | -23.18288 | -45.76890 | 20179 ft | 302 kts | 278° |
| 2026-04-12 00:07 | -23.17936 | -45.79139 | 20178 ft | 302 kts | 276° |
| 2026-04-12 00:08 | -23.17650 | -45.81370 | 20174 ft | 302 kts | 275° |
| 2026-04-12 00:08 | -23.17353 | -45.83632 | 20173 ft | 302 kts | 277° |
| 2026-04-12 00:08 | -23.17030 | -45.85886 | 20170 ft | 302 kts | 276° |
| 2026-04-12 00:08 | -23.16709 | -45.88145 | 20168 ft | 302 kts | 277° |
| 2026-04-12 00:09 | -23.16397 | -45.90403 | 20167 ft | 302 kts | 276° |
| 2026-04-12 00:09 | -23.16084 | -45.92665 | 20164 ft | 302 kts | 276° |
| 2026-04-12 00:09 | -23.15766 | -45.94924 | 20167 ft | 303 kts | 276° |
| 2026-04-12 00:09 | -23.15450 | -45.97179 | 20163 ft | 302 kts | 276° |
| 2026-04-12 00:10 | -23.15132 | -45.99438 | 20169 ft | 302 kts | 276° |
| 2026-04-12 00:10 | -23.14818 | -46.01697 | 20165 ft | 302 kts | 277° |
| 2026-04-12 00:10 | -23.14507 | -46.03925 | 20167 ft | 302 kts | 277° |
| 2026-04-12 00:10 | -23.14184 | -46.06174 | 19624 ft | 301 kts | 277° |
| 2026-04-12 00:11 | -23.13866 | -46.08415 | 18942 ft | 301 kts | 277° |
| 2026-04-12 00:11 | -23.13554 | -46.10664 | 18241 ft | 301 kts | 277° |
| 2026-04-12 00:11 | -23.13236 | -46.12910 | 17477 ft | 300 kts | 278° |
| 2026-04-12 00:11 | -23.12918 | -46.15139 | 16730 ft | 298 kts | 277° |
| 2026-04-12 00:12 | -23.12606 | -46.17358 | 15995 ft | 297 kts | 278° |
| 2026-04-12 00:12 | -23.12295 | -46.19562 | 15293 ft | 294 kts | 278° |
| 2026-04-12 00:12 | -23.11989 | -46.21717 | 14608 ft | 291 kts | 278° |
| 2026-04-12 00:12 | -23.11688 | -46.23871 | 14144 ft | 283 kts | 278° |
| 2026-04-12 00:13 | -23.11408 | -46.25937 | 13833 ft | 272 kts | 278° |
| 2026-04-12 00:13 | -23.11133 | -46.27903 | 13482 ft | 266 kts | 278° |
| 2026-04-12 00:13 | -23.10844 | -46.29875 | 13107 ft | 263 kts | 279° |
| 2026-04-12 00:13 | -23.10568 | -46.31774 | 12742 ft | 260 kts | 278° |
| 2026-04-12 00:14 | -23.10294 | -46.33704 | 12379 ft | 257 kts | 278° |
| 2026-04-12 00:14 | -23.10022 | -46.35613 | 12024 ft | 255 kts | 277° |
| 2026-04-12 00:14 | -23.09751 | -46.37507 | 11665 ft | 253 kts | 278° |
| 2026-04-12 00:14 | -23.09475 | -46.39425 | 11316 ft | 260 kts | 277° |
| 2026-04-12 00:15 | -23.09193 | -46.41346 | 10993 ft | 262 kts | 277° |
| 2026-04-12 00:15 | -23.08911 | -46.43309 | 10658 ft | 263 kts | 277° |
| 2026-04-12 00:15 | -23.08636 | -46.45274 | 10318 ft | 263 kts | 276° |
| 2026-04-12 00:15 | -23.08351 | -46.47231 | 9985 ft | 261 kts | 277° |
| 2026-04-12 00:16 | -23.08079 | -46.49175 | 9602 ft | 261 kts | 277° |
| 2026-04-12 00:16 | -23.07804 | -46.51127 | 9246 ft | 261 kts | 278° |
| 2026-04-12 00:16 | -23.07522 | -46.53071 | 8892 ft | 261 kts | 278° |
| 2026-04-12 00:16 | -23.07239 | -46.55008 | 8545 ft | 262 kts | 278° |
| 2026-04-12 00:17 | -23.06960 | -46.56961 | 8196 ft | 262 kts | 279° |
| 2026-04-12 00:17 | -23.06684 | -46.58882 | 7863 ft | 261 kts | 279° |
| 2026-04-12 00:17 | -23.06402 | -46.60831 | 7538 ft | 261 kts | 279° |
| 2026-04-12 00:17 | -23.06124 | -46.62785 | 7218 ft | 263 kts | 279° |
| 2026-04-12 00:18 | -23.05840 | -46.64750 | 6889 ft | 263 kts | 279° |
| 2026-04-12 00:18 | -23.05561 | -46.66657 | 6566 ft | 264 kts | 280° |
| 2026-04-12 00:18 | -23.05355 | -46.68632 | 6204 ft | 264 kts | 269° |
| 2026-04-12 00:18 | -23.05668 | -46.70593 | 5842 ft | 265 kts | 251° |
| 2026-04-12 00:19 | -23.06460 | -46.72347 | 5741 ft | 248 kts | 234° |
| 2026-04-12 00:19 | -23.07388 | -46.73689 | 5736 ft | 203 kts | 230° |
| 2026-04-12 00:19 | -23.08182 | -46.74848 | 5734 ft | 187 kts | 230° |
| 2026-04-12 00:19 | -23.08920 | -46.75970 | 5734 ft | 183 kts | 231° |
| 2026-04-12 00:20 | -23.09683 | -46.77126 | 5691 ft | 193 kts | 231° |
| 2026-04-12 00:20 | -23.10226 | -46.78522 | 5512 ft | 210 kts | 255° |
| 2026-04-12 00:20 | -23.10557 | -46.80105 | 5300 ft | 218 kts | 254° |
| 2026-04-12 00:20 | -23.10944 | -46.81659 | 5076 ft | 207 kts | 251° |
| 2026-04-12 00:21 | -23.11322 | -46.83138 | 4853 ft | 198 kts | 250° |
| 2026-04-12 00:21 | -23.11689 | -46.84563 | 4643 ft | 195 kts | 251° |
| 2026-04-12 00:21 | -23.12040 | -46.85988 | 4436 ft | 197 kts | 251° |
| 2026-04-12 00:21 | -23.12387 | -46.87416 | 4404 ft | 190 kts | 251° |
| 2026-04-12 00:22 | -23.12718 | -46.88760 | 4385 ft | 174 kts | 251° |
| 2026-04-12 00:22 | -23.13010 | -46.89952 | 4390 ft | 160 kts | 250° |
| 2026-04-12 00:22 | -23.13293 | -46.91094 | 4373 ft | 153 kts | 250° |
| 2026-04-12 00:22 | -23.13502 | -46.91919 | 4372 ft | 149 kts | 249° |
| 2026-04-12 00:23 | -23.13781 | -46.93043 | 4331 ft | 158 kts | 249° |
| 2026-04-12 00:23 | -23.14086 | -46.94267 | 4217 ft | 175 kts | 251° |
| 2026-04-12 00:23 | -23.14397 | -46.95550 | 4211 ft | 177 kts | 251° |
| 2026-04-12 00:23 | -23.14581 | -46.96864 | 4197 ft | 177 kts | 275° |
| 2026-04-12 00:24 | -23.14232 | -46.98131 | 4216 ft | 175 kts | 307° |
| 2026-04-12 00:24 | -23.13208 | -46.98732 | 4116 ft | 172 kts | 5° |
| 2026-04-12 00:24 | -23.12304 | -46.98174 | 3942 ft | 145 kts | 70° |
| 2026-04-12 00:24 | -23.12430 | -46.97220 | 3760 ft | 133 kts | 133° |
| 2026-04-12 00:25 | -23.13140 | -46.96716 | 3616 ft | 100 kts | 149° |
| 2026-04-12 00:25 | -23.13737 | -46.96451 | 3537 ft | 94 kts | 150° |
| 2026-04-12 00:25 | -23.14337 | -46.96144 | 3468 ft | 99 kts | 146° |
| 2026-04-12 00:25 | -23.14973 | -46.95817 | 3334 ft | 103 kts | 156° |
| 2026-04-12 00:26 | -23.15628 | -46.95523 | 3194 ft | 99 kts | 158° |
| 2026-04-12 00:26 | -23.16263 | -46.95279 | 3068 ft | 95 kts | 150° |
| 2026-04-12 00:26 | -23.16849 | -46.94987 | 2837 ft | 91 kts | 151° |
| 2026-04-12 00:26 | -23.17428 | -46.94702 | 2558 ft | 85 kts | 154° |
| 2026-04-12 00:27 | -23.17858 | -46.94492 | 2513 ft | 56 kts | 156° |
| 2026-04-12 00:27 | -23.18062 | -46.94401 | 2514 ft | 24 kts | 157° |
| 2026-04-12 00:27 | -23.18194 | -46.94341 | 2515 ft | 19 kts | 159° |
| 2026-04-12 00:27 | -23.18251 | -46.94338 | 2514 ft | 6 kts | 249° |
| 2026-04-12 00:28 | -23.18277 | -46.94397 | 2512 ft | 9 kts | 225° |
| 2026-04-12 00:28 | -23.18301 | -46.94403 | 2512 ft | 0 kts | 341° |